Time;durP1;ratioP1;P1;durP2;ratioP2;P2;SDS_P1;SDS_P2;PMS_P1;PMS_P2;Temp;Humidity;BMP_temperature;BMP_pressure;BME280_temperature;BME280_humidity;BME280_pressure;Samples;Min_cycle;Max_cycle;Signal;HPM_P1;HPM_P2
2023/08/27 00:00:52;;;;;;;4.10;2.50;;;;;;;;;;5012771;28;20041;-79
2023/08/27 00:03:18;;;;;;;4.28;2.70;;;;;;;;;;5006127;28;20164;-78
2023/08/27 00:05:43;;;;;;;4.10;2.80;;;;;;;;;;5070964;28;20117;-79
2023/08/27 00:08:10;;;;;;;3.45;3.10;;;;;;;;;;5004203;28;20038;-78
2023/08/27 00:10:35;;;;;;;5.22;2.67;;;;;;;;;;4998096;28;20037;-79
2023/08/27 00:13:01;;;;;;;5.55;2.88;;;;;;;;;;5000269;28;20030;-79
2023/08/27 00:15:26;;;;;;;4.13;2.53;;;;;;;;;;5004365;28;20109;-78
2023/08/27 00:17:51;;;;;;;4.05;3.00;;;;;;;;;;5001960;28;20018;-78
2023/08/27 00:20:17;;;;;;;6.22;3.45;;;;;;;;;;5003222;28;20108;-79
2023/08/27 00:22:42;;;;;;;3.85;2.95;;;;;;;;;;4996389;28;20045;-78
2023/08/27 00:25:08;;;;;;;4.07;2.90;;;;;;;;;;5002912;28;20030;-78
2023/08/27 00:27:33;;;;;;;5.43;2.60;;;;;;;;;;5020077;28;20057;-78
2023/08/27 00:29:59;;;;;;;3.00;2.30;;;;;;;;;;4997067;28;20018;-78
2023/08/27 00:32:28;;;;;;;4.13;2.60;;;;;;;;;;4994842;28;20515;-79
2023/08/27 00:34:53;;;;;;;5.85;2.95;;;;;;;;;;5005482;28;20046;-78
2023/08/27 00:37:19;;;;;;;5.05;2.40;;;;;;;;;;5002273;28;20030;-78
2023/08/27 00:39:44;;;;;;;4.95;2.58;;;;;;;;;;5061274;28;20558;-78
2023/08/27 00:42:09;;;;;;;2.83;2.33;;;;;;;;;;4995862;28;20549;-78
2023/08/27 00:44:35;;;;;;;4.32;2.75;;;;;;;;;;5001934;28;20021;-79
2023/08/27 00:47:00;;;;;;;2.97;2.30;;;;;;;;;;4998033;28;20031;-79
2023/08/27 00:49:26;;;;;;;6.30;2.70;;;;;;;;;;4994934;28;20042;-78
2023/08/27 00:51:52;;;;;;;8.90;2.50;;;;;;;;;;4991679;28;20031;-79
2023/08/27 00:54:17;;;;;;;2.95;2.47;;;;;;;;;;5067684;28;20037;-77
2023/08/27 00:56:47;;;;;;;2.95;2.28;;;;;;;;;;5003350;28;20266;-78
2023/08/27 00:59:13;;;;;;;3.60;2.40;;;;;;;;;;4999845;28;20065;-78
2023/08/27 01:01:42;;;;;;;2.33;2.10;;;;;;;;;;4996545;28;20726;-77
2023/08/27 01:04:08;;;;;;;3.30;1.90;;;;;;;;;;5001914;28;20069;-77
2023/08/27 01:06:34;;;;;;;3.42;2.00;;;;;;;;;;5002989;28;20540;-77
2023/08/27 01:09:12;;;;;;;3.28;1.63;;;;;;;;;;5001873;28;20448;-78
2023/08/27 01:12:04;;;;;;;4.55;2.40;;;;;;;;;;4989555;28;20050;-77
2023/08/27 01:14:33;;;;;;;3.00;1.95;;;;;;;;;;5003662;28;20484;-77
2023/08/27 01:17:02;;;;;;;1.98;1.33;;;;;;;;;;4995325;28;20236;-77
2023/08/27 01:19:28;;;;;;;2.15;1.80;;;;;;;;;;4999437;28;20046;-77
2023/08/27 01:21:54;;;;;;;3.78;1.88;;;;;;;;;;5001738;28;20931;-78
2023/08/27 01:24:19;;;;;;;5.47;2.08;;;;;;;;;;5068630;28;20023;-78
2023/08/27 01:27:14;;;;;;;5.00;1.77;;;;;;;;;;5001693;28;20417;-77
2023/08/27 01:29:54;;;;;;;3.55;1.60;;;;;;;;;;5000823;28;20073;-77
2023/08/27 01:32:38;;;;;;;4.32;1.92;;;;;;;;;;5068235;28;20030;-78
2023/08/27 01:35:06;;;;;;;3.42;1.88;;;;;;;;;;4998664;28;20034;-77
2023/08/27 01:37:31;;;;;;;3.17;2.28;;;;;;;;;;5003479;28;20034;-77
2023/08/27 01:40:05;;;;;;;7.15;2.00;;;;;;;;;;4999290;28;20532;-77
2023/08/27 01:42:30;;;;;;;3.35;2.20;;;;;;;;;;5070757;28;20531;-77
2023/08/27 01:44:56;;;;;;;4.32;2.10;;;;;;;;;;5006956;28;20050;-77
2023/08/27 01:47:21;;;;;;;6.85;2.63;;;;;;;;;;5003622;28;20129;-77
2023/08/27 01:49:48;;;;;;;4.88;2.25;;;;;;;;;;5003971;28;20060;-77
2023/08/27 01:52:13;;;;;;;3.65;2.30;;;;;;;;;;5069253;28;20271;-77
2023/08/27 01:54:39;;;;;;;4.78;3.55;;;;;;;;;;5001671;28;20146;-77
2023/08/27 01:57:04;;;;;;;7.78;4.57;;;;;;;;;;5004998;28;20587;-77
2023/08/27 01:59:30;;;;;;;6.05;4.20;;;;;;;;;;5001912;28;20069;-77
2023/08/27 02:01:55;;;;;;;6.32;4.80;;;;;;;;;;5068347;28;20026;-77
2023/08/27 02:04:20;;;;;;;11.27;5.15;;;;;;;;;;5004492;28;20030;-77
2023/08/27 02:06:45;;;;;;;7.50;4.97;;;;;;;;;;5000366;28;20046;-77
2023/08/27 02:09:11;;;;;;;5.72;4.82;;;;;;;;;;5002178;28;20430;-77
2023/08/27 02:11:36;;;;;;;5.82;4.38;;;;;;;;;;5006269;28;20045;-76
2023/08/27 02:14:02;;;;;;;6.70;4.57;;;;;;;;;;5005095;28;20038;-78
2023/08/27 02:16:27;;;;;;;8.38;5.15;;;;;;;;;;5067573;28;20035;-79
2023/08/27 02:18:53;;;;;;;8.57;5.03;;;;;;;;;;5001330;28;20521;-77
2023/08/27 02:21:18;;;;;;;11.27;4.65;;;;;;;;;;5005278;28;20115;-78
2023/08/27 02:23:43;;;;;;;8.93;5.55;;;;;;;;;;5005755;28;20026;-78
2023/08/27 02:26:09;;;;;;;11.05;5.03;;;;;;;;;;4999947;28;20056;-78
2023/08/27 02:28:34;;;;;;;14.38;5.25;;;;;;;;;;5002167;28;20088;-77
2023/08/27 02:30:59;;;;;;;9.02;5.65;;;;;;;;;;5000768;28;20038;-78
2023/08/27 02:33:25;;;;;;;7.97;5.70;;;;;;;;;;5005236;28;20034;-79
2023/08/27 02:35:50;;;;;;;8.82;5.28;;;;;;;;;;5004708;28;20492;-78
2023/08/27 02:38:17;;;;;;;8.75;5.47;;;;;;;;;;5002899;28;20087;-79
2023/08/27 02:40:43;;;;;;;8.57;5.70;;;;;;;;;;4995276;28;20042;-79
2023/08/27 02:43:08;;;;;;;6.93;4.15;;;;;;;;;;5000338;28;20477;-78
2023/08/27 02:45:33;;;;;;;5.78;4.15;;;;;;;;;;4998909;28;20492;-79
2023/08/27 02:47:59;;;;;;;8.13;5.28;;;;;;;;;;5004982;28;20097;-79
2023/08/27 02:50:24;;;;;;;7.18;5.03;;;;;;;;;;5005915;28;20037;-78
2023/08/27 02:52:49;;;;;;;8.85;4.60;;;;;;;;;;4998575;28;20053;-78
2023/08/27 02:55:15;;;;;;;9.98;5.18;;;;;;;;;;5003034;28;20677;-77
2023/08/27 02:57:41;;;;;;;12.15;4.75;;;;;;;;;;5004864;28;20034;-77
2023/08/27 03:00:07;;;;;;;13.27;5.15;;;;;;;;;;5073236;28;20070;-76
2023/08/27 03:02:32;;;;;;;9.55;5.25;;;;;;;;;;5066576;28;20061;-77
2023/08/27 03:05:02;;;;;;;11.05;5.22;;;;;;;;;;5059175;28;20069;-77
2023/08/27 03:07:28;;;;;;;9.27;4.93;;;;;;;;;;5072081;28;20034;-77
2023/08/27 03:09:53;;;;;;;14.45;6.43;;;;;;;;;;5003739;28;20040;-77
2023/08/27 03:12:18;;;;;;;15.10;5.88;;;;;;;;;;5003469;28;20104;-77
2023/08/27 03:14:44;;;;;;;15.88;6.07;;;;;;;;;;5001987;28;20029;-77
2023/08/27 03:17:09;;;;;;;11.80;6.30;;;;;;;;;;5003479;28;20041;-78
2023/08/27 03:19:34;;;;;;;11.93;6.07;;;;;;;;;;5003577;28;20449;-76
2023/08/27 03:22:00;;;;;;;11.27;6.47;;;;;;;;;;5002622;28;20801;-77
2023/08/27 03:24:25;;;;;;;11.95;6.70;;;;;;;;;;5002297;28;20543;-77
2023/08/27 03:26:50;;;;;;;14.35;6.35;;;;;;;;;;5000919;28;20716;-77
2023/08/27 03:29:16;;;;;;;10.80;6.20;;;;;;;;;;5071361;28;20030;-77
2023/08/27 03:31:41;;;;;;;9.68;6.47;;;;;;;;;;5005044;28;20277;-78
2023/08/27 03:34:07;;;;;;;9.43;5.93;;;;;;;;;;5001958;28;20064;-77
2023/08/27 03:36:32;;;;;;;13.75;6.13;;;;;;;;;;4999101;28;20101;-78
2023/08/27 03:38:58;;;;;;;10.02;6.25;;;;;;;;;;5002704;28;20105;-78
2023/08/27 03:41:23;;;;;;;10.18;5.55;;;;;;;;;;5003963;28;20055;-77
2023/08/27 03:43:48;;;;;;;8.93;5.10;;;;;;;;;;5004671;28;20118;-77
2023/08/27 03:46:13;;;;;;;9.00;5.38;;;;;;;;;;4999565;28;20045;-78
2023/08/27 03:48:39;;;;;;;10.52;6.75;;;;;;;;;;5002695;28;21027;-77
2023/08/27 03:51:04;;;;;;;17.88;7.10;;;;;;;;;;5001089;28;20117;-78
2023/08/27 03:53:29;;;;;;;13.60;6.43;;;;;;;;;;5001047;28;20030;-77
2023/08/27 03:55:55;;;;;;;10.73;6.32;;;;;;;;;;5003389;28;20053;-78
2023/08/27 03:58:20;;;;;;;12.18;6.55;;;;;;;;;;5000967;28;20062;-77
2023/08/27 04:00:46;;;;;;;11.07;6.25;;;;;;;;;;4996657;28;20030;-77
2023/08/27 04:03:11;;;;;;;13.27;6.15;;;;;;;;;;5003563;28;20428;-78
2023/08/27 04:05:38;;;;;;;12.50;6.00;;;;;;;;;;5002504;28;20086;-78
2023/08/27 04:08:03;;;;;;;8.52;5.53;;;;;;;;;;5000292;28;20034;-78
2023/08/27 04:10:29;;;;;;;10.55;5.20;;;;;;;;;;4998727;28;20113;-78
2023/08/27 04:12:54;;;;;;;10.82;5.63;;;;;;;;;;5000734;28;20057;-77
2023/08/27 04:15:20;;;;;;;9.18;5.30;;;;;;;;;;5003991;28;20047;-77
2023/08/27 04:17:45;;;;;;;8.48;5.07;;;;;;;;;;5068078;28;20447;-78
2023/08/27 04:20:11;;;;;;;9.35;5.75;;;;;;;;;;5002424;28;20113;-76
2023/08/27 04:22:36;;;;;;;7.90;4.72;;;;;;;;;;5061799;28;20080;-77
2023/08/27 04:25:01;;;;;;;7.32;5.20;;;;;;;;;;5001093;28;20077;-77
2023/08/27 04:27:27;;;;;;;8.15;5.18;;;;;;;;;;5003194;28;20117;-76
2023/08/27 04:29:52;;;;;;;9.25;5.43;;;;;;;;;;5067907;28;20030;-78
2023/08/27 04:32:17;;;;;;;6.65;4.80;;;;;;;;;;5001550;28;20038;-77
2023/08/27 04:34:43;;;;;;;8.50;4.57;;;;;;;;;;4998987;28;20878;-78
2023/08/27 04:37:08;;;;;;;14.98;4.97;;;;;;;;;;5000881;28;20084;-77
2023/08/27 04:39:33;;;;;;;7.53;4.65;;;;;;;;;;5000149;28;20038;-76
2023/08/27 04:41:59;;;;;;;8.55;4.47;;;;;;;;;;5001647;28;20057;-76
2023/08/27 04:44:26;;;;;;;9.60;5.30;;;;;;;;;;4996504;28;20531;-76
2023/08/27 04:46:51;;;;;;;6.55;5.30;;;;;;;;;;5069384;28;20038;-77
2023/08/27 04:49:17;;;;;;;13.05;5.53;;;;;;;;;;5003044;28;20097;-76
2023/08/27 04:51:42;;;;;;;8.68;5.57;;;;;;;;;;4998582;28;20495;-77
2023/08/27 04:54:07;;;;;;;9.13;4.47;;;;;;;;;;4999105;28;20026;-76
2023/08/27 04:56:32;;;;;;;6.07;4.60;;;;;;;;;;5000175;28;20045;-76
2023/08/27 04:58:58;;;;;;;7.20;4.50;;;;;;;;;;4999550;28;20562;-77
2023/08/27 05:01:23;;;;;;;6.90;3.75;;;;;;;;;;4999262;28;20103;-77
2023/08/27 05:03:48;;;;;;;3.38;2.65;;;;;;;;;;5065452;28;20163;-77
2023/08/27 05:06:14;;;;;;;4.13;2.60;;;;;;;;;;5001202;28;20018;-77
2023/08/27 05:08:42;;;;;;;4.32;2.50;;;;;;;;;;4995851;28;20029;-77
2023/08/27 05:11:07;;;;;;;3.72;2.45;;;;;;;;;;4999263;28;20034;-76
2023/08/27 05:13:32;;;;;;;4.68;2.63;;;;;;;;;;5001288;28;20171;-76
2023/08/27 05:15:58;;;;;;;4.30;2.42;;;;;;;;;;5000218;28;20038;-76
2023/08/27 05:18:23;;;;;;;4.50;2.75;;;;;;;;;;4999815;28;20069;-77
2023/08/27 05:20:48;;;;;;;4.15;3.08;;;;;;;;;;4995947;28;20112;-76
2023/08/27 05:23:14;;;;;;;7.38;3.10;;;;;;;;;;4999937;28;20570;-76
2023/08/27 05:25:39;;;;;;;2.40;2.20;;;;;;;;;;5001591;28;20040;-78
2023/08/27 05:28:04;;;;;;;3.40;2.30;;;;;;;;;;5063732;28;20034;-77
2023/08/27 05:30:30;;;;;;;2.28;2.08;;;;;;;;;;5062833;28;20397;-77
2023/08/27 05:32:55;;;;;;;4.07;2.15;;;;;;;;;;5003903;28;20565;-77
2023/08/27 05:35:22;;;;;;;2.33;2.13;;;;;;;;;;4989795;28;20034;-75
2023/08/27 05:37:47;;;;;;;2.10;1.90;;;;;;;;;;4993484;28;20385;-76
2023/08/27 05:40:13;;;;;;;2.65;1.50;;;;;;;;;;4998824;28;20041;-77
2023/08/27 05:42:38;;;;;;;4.72;1.42;;;;;;;;;;4995749;28;20038;-75
2023/08/27 05:45:04;;;;;;;1.40;1.30;;;;;;;;;;4989627;28;20027;-75
2023/08/27 05:47:30;;;;;;;1.77;1.35;;;;;;;;;;4996388;28;20027;-75
2023/08/27 05:49:55;;;;;;;1.30;1.20;;;;;;;;;;4998150;28;20137;-75
2023/08/27 05:52:20;;;;;;;1.10;1.00;;;;;;;;;;4995704;28;20534;-75
2023/08/27 05:54:46;;;;;;;2.42;1.02;;;;;;;;;;5061156;28;20126;-75
2023/08/27 05:57:11;;;;;;;1.30;1.15;;;;;;;;;;5058257;28;20270;-77
2023/08/27 05:59:37;;;;;;;1.45;1.00;;;;;;;;;;4996456;28;20034;-75
2023/08/27 06:02:02;;;;;;;1.10;1.00;;;;;;;;;;4995428;28;20091;-75
2023/08/27 06:04:28;;;;;;;1.40;0.90;;;;;;;;;;4989978;28;20137;-76
2023/08/27 06:06:53;;;;;;;2.90;1.17;;;;;;;;;;4990213;28;20042;-75
2023/08/27 06:09:19;;;;;;;1.30;1.20;;;;;;;;;;4987124;28;20025;-75
2023/08/27 06:11:44;;;;;;;2.58;1.20;;;;;;;;;;4988831;28;20032;-75
2023/08/27 06:14:09;;;;;;;2.90;1.10;;;;;;;;;;4995629;28;20037;-76
2023/08/27 06:16:34;;;;;;;0.95;0.95;;;;;;;;;;4990459;28;20084;-78
2023/08/27 06:19:00;;;;;;;2.67;1.05;;;;;;;;;;4986306;28;20085;-74
2023/08/27 06:21:26;;;;;;;2.10;1.17;;;;;;;;;;4986571;28;20180;-75
2023/08/27 06:23:51;;;;;;;0.73;0.73;;;;;;;;;;4989860;28;20022;-75
2023/08/27 06:26:17;;;;;;;0.90;0.90;;;;;;;;;;5000793;28;20049;-75
2023/08/27 06:28:42;;;;;;;1.20;1.10;;;;;;;;;;4996542;28;20480;-74
2023/08/27 06:31:07;;;;;;;1.00;1.00;;;;;;;;;;4995430;28;20503;-75
2023/08/27 06:33:33;;;;;;;1.35;1.25;;;;;;;;;;5062109;28;20122;-75
2023/08/27 06:35:58;;;;;;;1.45;1.35;;;;;;;;;;5002278;28;20053;-75
2023/08/27 06:38:24;;;;;;;1.17;1.08;;;;;;;;;;5000021;28;20093;-74
2023/08/27 06:40:49;;;;;;;1.38;1.20;;;;;;;;;;4995891;28;20042;-74
2023/08/27 06:43:14;;;;;;;1.67;1.00;;;;;;;;;;4994073;28;20061;-74
2023/08/27 06:45:40;;;;;;;1.45;0.93;;;;;;;;;;4994937;28;20042;-74
2023/08/27 06:48:05;;;;;;;2.20;0.95;;;;;;;;;;4986704;28;20022;-75
2023/08/27 06:50:31;;;;;;;1.05;1.00;;;;;;;;;;4991513;28;20091;-75
2023/08/27 06:52:56;;;;;;;1.17;1.08;;;;;;;;;;4993708;28;20050;-76
2023/08/27 06:55:21;;;;;;;1.40;1.30;;;;;;;;;;4985123;28;20042;-76
2023/08/27 06:57:46;;;;;;;1.23;1.13;;;;;;;;;;4988801;28;20406;-75
2023/08/27 07:00:12;;;;;;;1.50;1.13;;;;;;;;;;4990873;28;20026;-75
2023/08/27 07:02:38;;;;;;;1.92;0.90;;;;;;;;;;5065363;28;20611;-74
2023/08/27 07:05:08;;;;;;;1.23;1.13;;;;;;;;;;4996324;28;20038;-74
2023/08/27 07:07:43;;;;;;;1.20;1.10;;;;;;;;;;5003876;28;20030;-77
2023/08/27 07:10:08;;;;;;;1.40;1.30;;;;;;;;;;5000676;28;20095;-75
2023/08/27 07:12:38;;;;;;;2.72;1.20;;;;;;;;;;4996911;28;20050;-76
2023/08/27 07:15:04;;;;;;;8.35;1.20;;;;;;;;;;4993506;28;20034;-74
2023/08/27 07:17:32;;;;;;;7.18;1.30;;;;;;;;;;5069006;28;20112;-76
2023/08/27 07:19:57;;;;;;;1.13;1.10;;;;;;;;;;4999198;28;20039;-75
2023/08/27 07:22:22;;;;;;;2.40;1.10;;;;;;;;;;4992355;28;20041;-74
2023/08/27 07:24:48;;;;;;;0.90;0.90;;;;;;;;;;5061443;28;20042;-75
2023/08/27 07:27:13;;;;;;;3.70;1.15;;;;;;;;;;5060886;28;20444;-75
2023/08/27 07:29:38;;;;;;;1.40;1.30;;;;;;;;;;5058436;28;20116;-74
2023/08/27 07:32:04;;;;;;;2.55;1.00;;;;;;;;;;5067381;28;20040;-74
2023/08/27 07:34:30;;;;;;;2.13;1.20;;;;;;;;;;4996177;28;20042;-75
2023/08/27 07:36:56;;;;;;;1.38;1.20;;;;;;;;;;4993178;28;20051;-74
2023/08/27 07:39:22;;;;;;;1.02;1.02;;;;;;;;;;4990257;28;20076;-74
2023/08/27 07:41:47;;;;;;;0.90;0.90;;;;;;;;;;4994449;28;20060;-74
2023/08/27 07:44:13;;;;;;;1.42;0.93;;;;;;;;;;4997137;28;20141;-75
2023/08/27 07:46:38;;;;;;;0.90;0.90;;;;;;;;;;5060035;28;20068;-75
2023/08/27 07:49:04;;;;;;;2.15;1.00;;;;;;;;;;4988212;28;20087;-75
2023/08/27 07:51:29;;;;;;;1.00;1.00;;;;;;;;;;5059952;28;20041;-75
2023/08/27 07:53:54;;;;;;;2.03;1.42;;;;;;;;;;4992679;28;20034;-75
2023/08/27 07:56:19;;;;;;;2.10;1.27;;;;;;;;;;4988977;28;20396;-75
2023/08/27 07:58:45;;;;;;;1.20;0.80;;;;;;;;;;5061665;28;20072;-76
2023/08/27 08:01:11;;;;;;;0.90;0.90;;;;;;;;;;4992003;28;20022;-76
2023/08/27 08:03:36;;;;;;;1.70;1.17;;;;;;;;;;5052440;28;20049;-75
2023/08/27 08:06:03;;;;;;;2.03;1.00;;;;;;;;;;4986472;28;20027;-75
2023/08/27 08:08:29;;;;;;;1.38;0.95;;;;;;;;;;4990254;28;20373;-75
2023/08/27 08:10:55;;;;;;;0.80;0.80;;;;;;;;;;4992358;28;20039;-75
2023/08/27 08:13:21;;;;;;;0.90;0.90;;;;;;;;;;4991557;28;20031;-75
2023/08/27 08:15:49;;;;;;;1.30;1.20;;;;;;;;;;4984545;28;20043;-75
2023/08/27 08:18:14;;;;;;;1.40;0.93;;;;;;;;;;4988326;28;20065;-75
2023/08/27 08:20:40;;;;;;;3.22;1.30;;;;;;;;;;4989689;28;20024;-75
2023/08/27 08:23:05;;;;;;;1.83;1.30;;;;;;;;;;4996693;28;20034;-74
2023/08/27 08:25:33;;;;;;;1.52;1.42;;;;;;;;;;4996078;28;20377;-75
2023/08/27 08:27:58;;;;;;;1.27;1.20;;;;;;;;;;4995355;28;20038;-75
2023/08/27 08:30:24;;;;;;;2.05;1.27;;;;;;;;;;4989056;28;20106;-75
2023/08/27 08:32:49;;;;;;;1.00;1.00;;;;;;;;;;4992615;28;20104;-75
2023/08/27 08:35:15;;;;;;;1.35;1.20;;;;;;;;;;4998312;28;20042;-76
2023/08/27 08:37:40;;;;;;;1.80;1.27;;;;;;;;;;4990978;28;20119;-75
2023/08/27 08:40:06;;;;;;;1.35;1.25;;;;;;;;;;4990689;28;20039;-75
2023/08/27 08:42:37;;;;;;;1.10;1.00;;;;;;;;;;4990269;28;20042;-75
2023/08/27 08:45:09;;;;;;;1.05;1.05;;;;;;;;;;4987973;28;20034;-75
2023/08/27 08:47:35;;;;;;;1.45;1.35;;;;;;;;;;5048165;28;20045;-75
2023/08/27 08:50:04;;;;;;;1.38;1.10;;;;;;;;;;4980321;28;20033;-75
2023/08/27 08:52:35;;;;;;;1.00;1.00;;;;;;;;;;4981519;28;20435;-76
2023/08/27 08:55:06;;;;;;;1.30;1.20;;;;;;;;;;5051700;28;20117;-75
2023/08/27 08:57:36;;;;;;;2.42;1.40;;;;;;;;;;4995660;28;20050;-76
2023/08/27 09:00:02;;;;;;;1.20;1.10;;;;;;;;;;4997899;28;20124;-75
2023/08/27 09:02:27;;;;;;;1.02;1.02;;;;;;;;;;4995273;28;20697;-74
2023/08/27 09:04:54;;;;;;;1.85;1.20;;;;;;;;;;4999638;28;20040;-76
2023/08/27 09:07:20;;;;;;;1.50;1.40;;;;;;;;;;4998889;28;20508;-73
2023/08/27 09:09:48;;;;;;;2.63;1.15;;;;;;;;;;4997324;28;20042;-73
2023/08/27 09:12:15;;;;;;;1.30;1.20;;;;;;;;;;4996389;28;20033;-74
2023/08/27 09:14:40;;;;;;;4.25;1.40;;;;;;;;;;4997951;28;20026;-74
2023/08/27 09:17:07;;;;;;;2.10;1.23;;;;;;;;;;5003003;28;20391;-76
2023/08/27 09:19:33;;;;;;;1.13;1.08;;;;;;;;;;4996162;28;20423;-73
2023/08/27 09:21:59;;;;;;;5.90;1.15;;;;;;;;;;5063677;28;20092;-73
2023/08/27 09:24:24;;;;;;;1.83;1.38;;;;;;;;;;4999944;28;20034;-74
2023/08/27 09:26:49;;;;;;;1.20;1.10;;;;;;;;;;5000143;28;20510;-74
2023/08/27 09:29:16;;;;;;;1.23;1.10;;;;;;;;;;4988814;28;20038;-74
2023/08/27 09:31:43;;;;;;;1.38;1.27;;;;;;;;;;4994542;28;20030;-73
2023/08/27 09:34:09;;;;;;;4.40;1.15;;;;;;;;;;4998319;28;20030;-74
2023/08/27 09:36:36;;;;;;;1.55;1.20;;;;;;;;;;4997011;28;20046;-74
2023/08/27 09:39:10;;;;;;;4.78;1.40;;;;;;;;;;4992730;28;20030;-74
2023/08/27 09:41:41;;;;;;;1.25;1.15;;;;;;;;;;5062156;28;20134;-74
2023/08/27 09:44:07;;;;;;;3.22;1.38;;;;;;;;;;4995894;28;20431;-75
2023/08/27 09:46:34;;;;;;;2.38;1.63;;;;;;;;;;5000731;28;20400;-75
2023/08/27 09:49:07;;;;;;;1.73;1.38;;;;;;;;;;4995481;28;20118;-75
2023/08/27 09:51:37;;;;;;;2.10;1.20;;;;;;;;;;4997135;28;20051;-75
2023/08/27 09:54:16;;;;;;;1.52;1.20;;;;;;;;;;4996172;28;20907;-75
2023/08/27 09:56:46;;;;;;;1.52;1.02;;;;;;;;;;5057562;28;20046;-75
2023/08/27 09:59:15;;;;;;;4.05;1.17;;;;;;;;;;4989600;28;20035;-75
2023/08/27 10:01:40;;;;;;;1.70;1.42;;;;;;;;;;4998179;28;20046;-74
2023/08/27 10:04:09;;;;;;;1.73;1.55;;;;;;;;;;4999330;28;20091;-74
2023/08/27 10:06:35;;;;;;;2.65;1.63;;;;;;;;;;5002113;28;20088;-74
2023/08/27 10:09:00;;;;;;;1.27;1.17;;;;;;;;;;5003090;28;20396;-74
2023/08/27 10:11:26;;;;;;;3.42;1.20;;;;;;;;;;4993641;28;20026;-75
2023/08/27 10:13:52;;;;;;;1.00;0.98;;;;;;;;;;4998913;28;20033;-75
2023/08/27 10:16:18;;;;;;;1.45;1.30;;;;;;;;;;5003920;28;20087;-75
2023/08/27 10:18:43;;;;;;;1.75;1.10;;;;;;;;;;5003353;28;20056;-74
2023/08/27 10:21:09;;;;;;;1.23;0.90;;;;;;;;;;5003656;28;20498;-75
2023/08/27 10:23:38;;;;;;;0.82;0.82;;;;;;;;;;4997184;28;20087;-76
2023/08/27 10:26:04;;;;;;;0.80;0.80;;;;;;;;;;5004313;28;20033;-77
2023/08/27 10:28:31;;;;;;;0.90;0.90;;;;;;;;;;5070450;28;20584;-76
2023/08/27 10:30:57;;;;;;;0.93;0.80;;;;;;;;;;5003353;28;20526;-75
2023/08/27 10:33:22;;;;;;;0.70;0.70;;;;;;;;;;5068463;28;20031;-77
2023/08/27 10:35:51;;;;;;;1.20;0.88;;;;;;;;;;4992213;28;20030;-76
2023/08/27 10:38:18;;;;;;;0.73;0.73;;;;;;;;;;4999413;28;20062;-77
2023/08/27 10:40:44;;;;;;;2.80;1.00;;;;;;;;;;5000766;28;20030;-75
2023/08/27 10:43:20;;;;;;;1.10;0.90;;;;;;;;;;5001305;28;20118;-76
2023/08/27 10:45:47;;;;;;;1.63;1.05;;;;;;;;;;5000784;28;20543;-76
2023/08/27 10:48:15;;;;;;;1.27;0.93;;;;;;;;;;4996663;28;20025;-76
2023/08/27 10:50:49;;;;;;;0.93;0.88;;;;;;;;;;5073035;28;20376;-75
2023/08/27 10:53:15;;;;;;;1.00;0.90;;;;;;;;;;5004777;28;20500;-75
2023/08/27 10:55:45;;;;;;;1.58;0.90;;;;;;;;;;5002213;28;20128;-78
2023/08/27 10:58:15;;;;;;;0.90;0.90;;;;;;;;;;5001675;28;20038;-77
2023/08/27 11:00:56;;;;;;;0.93;0.90;;;;;;;;;;4996196;28;20045;-77
2023/08/27 11:03:21;;;;;;;1.00;1.00;;;;;;;;;;5063255;28;20074;-76
2023/08/27 11:06:13;;;;;;;0.70;0.70;;;;;;;;;;5000191;28;20038;-76
2023/08/27 11:08:40;;;;;;;1.75;0.60;;;;;;;;;;4999765;28;20042;-75
2023/08/27 11:11:13;;;;;;;0.73;0.70;;;;;;;;;;5002076;28;20041;-76
2023/08/27 11:13:41;;;;;;;0.70;0.70;;;;;;;;;;5001659;28;20067;-75
2023/08/27 11:16:11;;;;;;;0.90;0.70;;;;;;;;;;5003267;28;20041;-76
2023/08/27 11:18:50;;;;;;;0.77;0.77;;;;;;;;;;5000530;28;20038;-76
2023/08/27 11:21:25;;;;;;;0.88;0.88;;;;;;;;;;5000210;28;20018;-75
2023/08/27 11:24:12;;;;;;;2.00;0.80;;;;;;;;;;4999488;28;20493;-76
2023/08/27 11:26:39;;;;;;;0.50;0.50;;;;;;;;;;5000895;28;20061;-76
2023/08/27 11:29:07;;;;;;;0.70;0.70;;;;;;;;;;5065987;28;20580;-77
2023/08/27 11:31:32;;;;;;;0.77;0.77;;;;;;;;;;5002124;28;20034;-75
2023/08/27 11:33:58;;;;;;;0.70;0.70;;;;;;;;;;5003320;28;20287;-74
2023/08/27 11:36:23;;;;;;;0.98;0.70;;;;;;;;;;4998042;28;20465;-73
2023/08/27 11:38:48;;;;;;;0.80;0.80;;;;;;;;;;5001621;28;20018;-73
2023/08/27 11:41:14;;;;;;;0.90;0.90;;;;;;;;;;5000161;28;20079;-74
2023/08/27 11:43:39;;;;;;;0.80;0.80;;;;;;;;;;5001549;28;20057;-74
2023/08/27 11:46:04;;;;;;;0.95;0.95;;;;;;;;;;5000678;28;20389;-74
2023/08/27 11:48:29;;;;;;;0.90;0.90;;;;;;;;;;5068857;28;20021;-74
2023/08/27 11:50:55;;;;;;;1.08;0.90;;;;;;;;;;5002567;28;20034;-74
2023/08/27 11:53:23;;;;;;;0.77;0.77;;;;;;;;;;5002789;28;20037;-74
2023/08/27 11:55:48;;;;;;;2.40;1.00;;;;;;;;;;5000794;28;20129;-74
2023/08/27 11:58:15;;;;;;;1.02;0.98;;;;;;;;;;5000347;28;20129;-75
2023/08/27 12:00:44;;;;;;;1.95;0.90;;;;;;;;;;5002545;28;20567;-74
2023/08/27 12:03:10;;;;;;;1.00;0.85;;;;;;;;;;4994514;28;20106;-74
2023/08/27 12:05:36;;;;;;;0.80;0.80;;;;;;;;;;4991779;28;20981;-74
2023/08/27 12:08:07;;;;;;;0.70;0.70;;;;;;;;;;4995128;28;20099;-74
2023/08/27 12:10:33;;;;;;;2.33;0.70;;;;;;;;;;4995460;28;20038;-73
2023/08/27 12:13:00;;;;;;;0.80;0.80;;;;;;;;;;4997725;28;20045;-74
2023/08/27 12:15:29;;;;;;;1.05;0.95;;;;;;;;;;4992121;28;20046;-73
2023/08/27 12:17:55;;;;;;;1.63;0.90;;;;;;;;;;5060565;28;20480;-74
2023/08/27 12:20:32;;;;;;;2.20;0.80;;;;;;;;;;5055604;28;20082;-73
2023/08/27 12:23:10;;;;;;;1.67;0.77;;;;;;;;;;4986040;28;20450;-73
2023/08/27 12:25:47;;;;;;;0.88;0.88;;;;;;;;;;4997274;28;20038;-73
2023/08/27 12:28:13;;;;;;;2.35;0.90;;;;;;;;;;5063762;28;20077;-73
2023/08/27 12:30:46;;;;;;;2.70;1.30;;;;;;;;;;4992770;28;20065;-73
2023/08/27 12:33:12;;;;;;;3.45;0.93;;;;;;;;;;5063051;28;20472;-73
2023/08/27 12:35:37;;;;;;;0.85;0.80;;;;;;;;;;4995169;28;20030;-73
2023/08/27 12:38:02;;;;;;;1.35;0.85;;;;;;;;;;4985185;28;20087;-73
2023/08/27 12:40:28;;;;;;;3.97;0.80;;;;;;;;;;4998026;28;20551;-74
2023/08/27 12:42:53;;;;;;;0.90;0.90;;;;;;;;;;4998345;28;20054;-74
2023/08/27 12:45:20;;;;;;;3.65;1.20;;;;;;;;;;5001471;28;20133;-73
2023/08/27 12:47:45;;;;;;;0.68;0.68;;;;;;;;;;4998431;28;20026;-74
2023/08/27 12:50:10;;;;;;;0.77;0.75;;;;;;;;;;5000979;28;20123;-73
2023/08/27 12:52:37;;;;;;;0.93;0.68;;;;;;;;;;4997742;28;20050;-74
2023/08/27 12:55:02;;;;;;;0.85;0.70;;;;;;;;;;4993042;28;20060;-74
2023/08/27 12:57:28;;;;;;;0.90;0.70;;;;;;;;;;4993097;28;20692;-73
2023/08/27 12:59:53;;;;;;;0.80;0.80;;;;;;;;;;5002845;28;20456;-73
2023/08/27 13:02:19;;;;;;;5.10;1.10;;;;;;;;;;5004220;28;20446;-74
2023/08/27 13:04:45;;;;;;;0.90;0.90;;;;;;;;;;4999471;28;20133;-74
2023/08/27 13:07:10;;;;;;;0.82;0.77;;;;;;;;;;5002297;28;20046;-74
2023/08/27 13:09:36;;;;;;;2.70;0.60;;;;;;;;;;4996537;28;20479;-73
2023/08/27 13:12:02;;;;;;;0.82;0.75;;;;;;;;;;4997409;28;20025;-74
2023/08/27 13:14:27;;;;;;;0.80;0.80;;;;;;;;;;4997563;28;20046;-74
2023/08/27 13:16:52;;;;;;;1.13;1.10;;;;;;;;;;4997127;28;20412;-74
2023/08/27 13:19:18;;;;;;;1.85;0.85;;;;;;;;;;4998272;28;20034;-74
2023/08/27 13:21:45;;;;;;;0.95;0.93;;;;;;;;;;5060888;28;20038;-74
2023/08/27 13:24:11;;;;;;;0.80;0.80;;;;;;;;;;5062939;28;20026;-74
2023/08/27 13:26:36;;;;;;;3.45;1.00;;;;;;;;;;4994574;28;20052;-74
2023/08/27 13:29:02;;;;;;;0.88;0.88;;;;;;;;;;4996762;28;20030;-74
2023/08/27 13:31:28;;;;;;;2.65;1.10;;;;;;;;;;4994370;28;20038;-74
2023/08/27 13:33:53;;;;;;;1.27;0.80;;;;;;;;;;4997838;28;20523;-74
2023/08/27 13:36:18;;;;;;;1.58;0.95;;;;;;;;;;5050051;28;20069;-74
2023/08/27 13:38:44;;;;;;;2.60;0.80;;;;;;;;;;4986188;28;20065;-74
2023/08/27 13:41:09;;;;;;;2.58;1.00;;;;;;;;;;4990237;28;20042;-74
2023/08/27 13:43:35;;;;;;;1.85;1.10;;;;;;;;;;5056138;28;20542;-74
2023/08/27 13:46:00;;;;;;;3.97;1.17;;;;;;;;;;4986953;28;20042;-74
2023/08/27 13:48:25;;;;;;;1.00;1.00;;;;;;;;;;4986280;28;20053;-74
2023/08/27 13:50:51;;;;;;;1.45;1.10;;;;;;;;;;5000178;28;20034;-74
2023/08/27 13:53:16;;;;;;;0.90;0.90;;;;;;;;;;4992244;28;20572;-74
2023/08/27 13:55:42;;;;;;;1.08;1.08;;;;;;;;;;4985395;28;20042;-74
2023/08/27 13:58:07;;;;;;;1.15;0.90;;;;;;;;;;5001940;28;20038;-75
2023/08/27 14:00:35;;;;;;;1.00;1.00;;;;;;;;;;4985125;28;20041;-74
2023/08/27 14:03:00;;;;;;;0.90;0.90;;;;;;;;;;4996570;28;20644;-75
2023/08/27 14:05:26;;;;;;;1.02;0.98;;;;;;;;;;4998514;28;20138;-75
2023/08/27 14:07:51;;;;;;;0.80;0.80;;;;;;;;;;4996650;28;20463;-75
2023/08/27 14:10:17;;;;;;;0.98;0.98;;;;;;;;;;4995302;28;20716;-75
2023/08/27 14:12:45;;;;;;;2.47;0.90;;;;;;;;;;4998571;28;20059;-74
2023/08/27 14:15:11;;;;;;;2.22;1.00;;;;;;;;;;4989309;28;20026;-75
2023/08/27 14:17:36;;;;;;;0.90;0.90;;;;;;;;;;4998624;28;20030;-75
2023/08/27 14:20:02;;;;;;;0.82;0.82;;;;;;;;;;4992714;28;20527;-75
2023/08/27 14:22:28;;;;;;;1.08;0.90;;;;;;;;;;5000162;28;20466;-75
2023/08/27 14:24:53;;;;;;;0.80;0.80;;;;;;;;;;5067627;28;20045;-75
2023/08/27 14:27:19;;;;;;;2.10;1.00;;;;;;;;;;5066115;28;20032;-75
2023/08/27 14:29:44;;;;;;;0.90;0.90;;;;;;;;;;4999549;28;20164;-75
2023/08/27 14:32:09;;;;;;;1.02;1.00;;;;;;;;;;4996673;28;20129;-75
2023/08/27 14:34:35;;;;;;;0.90;0.90;;;;;;;;;;5066760;28;20113;-75
2023/08/27 14:37:00;;;;;;;1.85;1.52;;;;;;;;;;4998199;28;20575;-75